createdAt,value
2023-11-12T00:01:09.097Z,62.68
2023-11-12T00:04:00.147Z,62.51
2023-11-12T00:06:31.207Z,62.45
2023-11-12T00:09:05.454Z,62.87
2023-11-12T00:11:37.247Z,62.41
2023-11-12T00:14:09.033Z,62.66
2023-11-12T00:16:40.594Z,62.59
2023-11-12T00:19:11.951Z,62.71
2023-11-12T00:21:42.934Z,62.46
2023-11-12T00:24:14.112Z,62.89
2023-11-12T00:26:45.090Z,62.80
2023-11-12T00:29:16.231Z,62.70
2023-11-12T00:31:47.363Z,62.84
2023-11-12T00:34:18.305Z,62.66
2023-11-12T00:36:49.173Z,62.60
2023-11-12T00:39:20.187Z,62.82
2023-11-12T00:41:51.317Z,62.70
2023-11-12T00:44:24.844Z,63.07
2023-11-12T00:46:56.127Z,63.06
2023-11-12T00:49:27.240Z,63.14
2023-11-12T00:51:58.231Z,62.83
2023-11-12T00:54:29.204Z,62.99
2023-11-12T00:57:00.231Z,62.96
2023-11-12T00:59:31.266Z,63.17
2023-11-12T01:02:02.517Z,62.76
2023-11-12T01:04:34.122Z,63.01
2023-11-12T01:07:05.194Z,63.05
2023-11-12T01:09:36.598Z,62.87
2023-11-12T01:12:08.969Z,63.01
2023-11-12T01:14:40.135Z,63.10
2023-11-12T01:17:12.005Z,63.21
2023-11-12T01:19:43.013Z,62.96
2023-11-12T01:22:14.097Z,63.22
2023-11-12T01:24:45.130Z,63.17
2023-11-12T01:27:16.063Z,63.02
2023-11-12T01:29:47.103Z,63.02
2023-11-12T01:32:17.956Z,63.12
2023-11-12T01:34:49.131Z,63.18
2023-11-12T01:37:20.152Z,63.27
2023-11-12T01:39:51.180Z,63.07
2023-11-12T01:42:22.924Z,63.12
2023-11-12T01:44:53.968Z,63.25
2023-11-12T01:47:25.112Z,63.25
2023-11-12T01:49:56.197Z,63.13
2023-11-12T01:52:27.190Z,63.09
2023-11-12T01:54:58.186Z,63.07
2023-11-12T01:57:29.004Z,63.17
2023-11-12T02:00:00.080Z,63.03
2023-11-12T02:02:31.165Z,63.23
2023-11-12T02:05:02.224Z,63.10
2023-11-12T02:07:33.300Z,62.93
2023-11-12T02:10:10.869Z,63.02
2023-11-12T02:12:41.984Z,62.94
2023-11-12T02:15:15.401Z,62.83
2023-11-12T02:17:46.905Z,63.24
2023-11-12T02:20:17.978Z,63.06
2023-11-12T02:22:49.638Z,62.94
2023-11-12T02:25:20.605Z,63.25
2023-11-12T02:27:51.598Z,63.04
2023-11-12T02:30:22.599Z,63.17
2023-11-12T02:32:53.463Z,63.23
2023-11-12T02:35:24.621Z,63.21
2023-11-12T02:37:55.645Z,62.87
2023-11-12T02:40:26.510Z,63.08
2023-11-12T02:42:57.446Z,63.15
2023-11-12T02:45:28.594Z,62.83
2023-11-12T02:47:59.542Z,63.27
2023-11-12T02:50:33.263Z,63.27
2023-11-12T02:53:05.726Z,63.27
2023-11-12T02:55:37.532Z,63.01
2023-11-12T02:58:08.718Z,63.16
2023-11-12T03:00:39.897Z,63.28
2023-11-12T03:03:15.953Z,63.14
2023-11-12T03:05:47.273Z,63.22
2023-11-12T03:08:18.217Z,63.27
2023-11-12T03:10:49.215Z,63.18
2023-11-12T03:13:20.151Z,63.22
2023-11-12T03:15:51.150Z,63.20
2023-11-12T03:18:23.582Z,63.19
2023-11-12T03:20:54.508Z,63.13
2023-11-12T03:23:25.509Z,63.17
2023-11-12T03:25:56.621Z,63.29
2023-11-12T03:28:28.105Z,63.14
2023-11-12T03:30:59.083Z,63.27
2023-11-12T03:33:30.357Z,63.30
2023-11-12T03:36:01.287Z,63.13
2023-11-12T03:38:32.467Z,63.27
2023-11-12T03:41:03.829Z,62.94
2023-11-12T03:43:34.684Z,63.04
2023-11-12T03:46:05.903Z,63.16
2023-11-12T03:48:37.426Z,63.06
2023-11-12T03:51:08.500Z,63.22
2023-11-12T03:53:39.572Z,63.03
2023-11-12T03:56:11.045Z,63.19
2023-11-12T03:58:42.105Z,63.05
2023-11-12T04:01:13.750Z,62.91
2023-11-12T04:03:44.903Z,62.76
2023-11-12T04:06:16.151Z,62.96
2023-11-12T04:08:47.377Z,62.83
2023-11-12T04:11:18.315Z,63.01
2023-11-12T04:13:49.093Z,62.85
2023-11-12T04:16:20.953Z,62.92
2023-11-12T04:18:51.984Z,62.77
2023-11-12T04:21:23.075Z,62.80
2023-11-12T04:23:54.067Z,62.99
2023-11-12T04:26:26.044Z,63.03
2023-11-12T04:28:57.148Z,62.91
2023-11-12T04:31:28.241Z,62.84
2023-11-12T04:33:59.127Z,63.11
2023-11-12T04:36:30.249Z,63.15
2023-11-12T04:39:01.266Z,62.84
2023-11-12T04:41:32.894Z,62.85
2023-11-12T04:44:03.694Z,62.67
2023-11-12T04:46:35.350Z,62.95
2023-11-12T04:49:06.441Z,62.84
2023-11-12T04:51:37.339Z,62.81
2023-11-12T04:54:08.416Z,62.73
2023-11-12T04:56:46.036Z,62.87
2023-11-12T04:59:16.970Z,62.95
2023-11-12T05:01:47.929Z,62.65
2023-11-12T05:04:18.822Z,62.63
2023-11-12T05:06:49.936Z,62.74
2023-11-12T05:09:21.096Z,62.65
2023-11-12T05:11:52.094Z,62.58
2023-11-12T05:14:22.976Z,62.71
2023-11-12T05:16:54.003Z,62.61
2023-11-12T05:19:24.918Z,62.54
2023-11-12T05:21:55.860Z,62.67
2023-11-12T05:24:27.067Z,62.75
2023-11-12T05:26:58.122Z,62.50
2023-11-12T05:29:29.224Z,62.42
2023-11-12T05:32:00.242Z,62.47
2023-11-12T05:34:31.360Z,62.71
2023-11-12T05:37:02.346Z,62.65
2023-11-12T05:39:33.467Z,62.65
2023-11-12T05:42:04.657Z,62.46
2023-11-12T05:44:35.658Z,62.56
2023-11-12T05:47:06.949Z,62.51
2023-11-12T05:49:37.942Z,62.60
2023-11-12T05:52:09.169Z,62.38
2023-11-12T05:54:40.353Z,62.45
2023-11-12T05:57:11.372Z,62.41
2023-11-12T05:59:42.335Z,62.35
2023-11-12T06:02:13.320Z,62.57
2023-11-12T06:04:44.216Z,62.32
2023-11-12T06:07:15.232Z,62.44
2023-11-12T06:09:48.039Z,62.34
2023-11-12T06:12:18.976Z,62.18
2023-11-12T06:18:55.004Z,62.58
2023-11-12T06:21:25.810Z,62.49
2023-11-12T06:23:56.767Z,62.41
2023-11-12T06:26:27.642Z,62.30
2023-11-12T06:28:58.477Z,62.39
2023-11-12T06:31:29.306Z,62.38
2023-11-12T06:34:00.337Z,62.41
2023-11-12T06:36:31.255Z,62.44
2023-11-12T06:39:02.012Z,62.46
2023-11-12T06:41:33.787Z,62.38
2023-11-12T06:44:04.817Z,62.34
2023-11-12T06:46:35.643Z,62.47
2023-11-12T06:49:09.767Z,62.44
2023-11-12T06:51:40.684Z,62.34
2023-11-12T06:54:12.188Z,62.32
2023-11-12T06:56:43.176Z,62.38
2023-11-12T06:59:13.976Z,62.14
2023-11-12T07:01:47.041Z,62.26
2023-11-12T07:04:17.890Z,62.23
2023-11-12T07:07:01.635Z,62.05
2023-11-12T07:09:41.199Z,62.07
2023-11-12T07:12:12.151Z,62.13
2023-11-12T07:14:43.346Z,62.00
2023-11-12T07:17:15.473Z,61.99
2023-11-12T07:25:05.849Z,61.74
2023-11-12T07:27:36.890Z,61.60
2023-11-12T07:30:11.841Z,61.47
2023-11-12T07:32:42.949Z,61.34
2023-11-12T07:35:14.523Z,61.20
2023-11-12T07:37:45.823Z,61.21
2023-11-12T07:40:19.467Z,61.25
2023-11-12T07:42:50.561Z,61.20
2023-11-12T07:45:25.722Z,61.13
2023-11-12T07:48:02.830Z,61.06
2023-11-12T07:50:34.014Z,60.99
2023-11-12T07:53:05.731Z,60.86
2023-11-12T07:55:36.568Z,61.05
2023-11-12T07:58:07.551Z,61.09
2023-11-12T08:00:38.584Z,60.79
2023-11-12T08:03:09.380Z,60.83
2023-11-12T08:05:42.053Z,60.66
2023-11-12T08:08:12.994Z,60.60
2023-11-12T08:10:43.973Z,60.56
2023-11-12T08:13:17.834Z,60.45
2023-11-12T08:15:48.776Z,60.45
2023-11-12T08:18:19.624Z,60.53
2023-11-12T08:20:50.707Z,60.32
2023-11-12T08:23:21.727Z,60.28
2023-11-12T08:25:52.724Z,60.19
2023-11-12T08:28:25.753Z,59.90
2023-11-12T08:30:56.737Z,59.95
2023-11-12T08:33:27.665Z,59.89
2023-11-12T08:35:58.433Z,59.64
2023-11-12T08:38:29.087Z,59.65
2023-11-12T08:40:59.932Z,59.30
2023-11-12T08:43:30.778Z,59.25
2023-11-12T08:46:01.727Z,59.10
2023-11-12T08:48:34.146Z,59.22
2023-11-12T08:51:06.251Z,58.94
2023-11-12T08:53:37.183Z,58.98
2023-11-12T08:56:08.822Z,58.90
2023-11-12T08:58:40.295Z,59.01
2023-11-12T09:01:13.437Z,58.75
2023-11-12T09:03:44.356Z,58.56
2023-11-12T09:06:15.330Z,58.30
2023-11-12T09:08:46.521Z,58.45
2023-11-12T09:11:17.398Z,58.29
2023-11-12T09:13:48.442Z,58.39
2023-11-12T09:16:19.374Z,58.25
2023-11-12T09:18:51.030Z,57.97
2023-11-12T09:21:23.839Z,57.69
2023-11-12T09:23:54.742Z,57.64
2023-11-12T09:26:25.770Z,57.75
2023-11-12T09:28:56.642Z,57.65
2023-11-12T09:31:27.656Z,57.37
2023-11-12T09:33:59.057Z,57.45
2023-11-12T09:36:30.169Z,57.09
2023-11-12T09:39:01.315Z,57.16
2023-11-12T09:41:32.294Z,57.07
2023-11-12T09:44:05.258Z,56.70
2023-11-12T09:46:36.784Z,55.84
2023-11-12T09:49:07.839Z,56.39
2023-11-12T09:51:38.785Z,56.00
2023-11-12T09:54:09.721Z,56.12
2023-11-12T09:56:40.672Z,55.97
2023-11-12T09:59:11.585Z,56.20
2023-11-12T10:01:42.632Z,55.91
2023-11-12T10:04:14.473Z,54.99
2023-11-12T10:06:48.132Z,54.47
2023-11-12T10:09:19.502Z,54.69
2023-11-12T10:11:50.408Z,54.35
2023-11-12T10:14:24.236Z,54.06
2023-11-12T10:16:55.447Z,54.21
2023-11-12T10:25:56.731Z,54.07
2023-11-12T10:28:27.319Z,53.62
2023-11-12T10:30:58.396Z,53.22
2023-11-12T10:33:29.410Z,53.18
2023-11-12T10:36:00.756Z,53.21
2023-11-12T10:44:48.775Z,52.97
2023-11-12T10:47:20.981Z,52.78
2023-11-12T10:49:51.897Z,52.70
2023-11-12T10:52:22.696Z,52.69
2023-11-12T10:54:53.783Z,52.70
2023-11-12T10:57:25.495Z,52.64
2023-11-12T10:59:56.497Z,52.65
2023-11-12T11:02:31.321Z,52.48
2023-11-12T11:05:02.591Z,52.29
2023-11-12T11:07:33.992Z,52.40
2023-11-12T11:10:05.270Z,52.17
2023-11-12T11:12:36.031Z,51.71
2023-11-12T11:15:24.254Z,50.86
2023-11-12T11:17:55.090Z,50.90
2023-11-12T11:20:27.334Z,51.21
2023-11-12T11:22:58.286Z,51.10
2023-11-12T11:25:31.211Z,50.68
2023-11-12T11:28:19.382Z,50.09
2023-11-12T11:31:03.613Z,50.37
2023-11-12T11:33:37.051Z,50.07
2023-11-12T11:36:11.317Z,49.58
2023-11-12T11:38:42.410Z,50.19
2023-11-12T11:41:13.268Z,50.05
2023-11-12T11:43:44.777Z,49.92
2023-11-12T11:46:16.936Z,48.74
2023-11-12T11:49:04.421Z,49.18
2023-11-12T11:51:48.058Z,48.99
2023-11-12T11:54:18.819Z,48.93
2023-11-12T11:56:49.600Z,48.59
2023-11-12T11:59:20.327Z,48.31
2023-11-12T12:01:53.581Z,47.97
2023-11-12T12:04:24.658Z,48.13
2023-11-12T12:06:57.225Z,47.61
2023-11-12T12:09:28.085Z,47.69
2023-11-12T12:11:58.982Z,47.38
2023-11-12T12:14:29.874Z,47.44
2023-11-12T12:17:09.163Z,47.54
2023-11-12T12:19:39.982Z,47.26
2023-11-12T12:22:10.875Z,46.58
2023-11-12T12:24:41.594Z,46.90
2023-11-12T12:27:14.219Z,46.64
2023-11-12T12:29:47.581Z,46.64
2023-11-12T12:32:19.578Z,46.53
2023-11-12T12:34:58.158Z,45.92
2023-11-12T12:37:32.546Z,46.08
2023-11-12T12:40:05.507Z,46.00
2023-11-12T12:42:36.534Z,45.72
2023-11-12T12:45:13.861Z,45.40
2023-11-12T12:47:45.768Z,45.52
2023-11-12T12:50:18.094Z,45.35
2023-11-12T12:52:49.084Z,44.73
2023-11-12T12:55:22.212Z,44.92
2023-11-12T12:57:53.269Z,44.79
2023-11-12T13:00:24.034Z,44.84
2023-11-12T13:02:55.086Z,44.76
2023-11-12T13:05:26.984Z,44.64
2023-11-12T13:07:58.099Z,44.47
2023-11-12T13:10:29.734Z,44.13
2023-11-12T13:13:00.799Z,44.22
2023-11-12T13:15:31.748Z,43.79
2023-11-12T13:18:02.897Z,43.79
2023-11-12T13:20:33.792Z,43.78
2023-11-12T13:23:04.640Z,43.45
2023-11-12T13:25:35.384Z,43.73
2023-11-12T13:28:10.290Z,43.57
2023-11-12T13:30:41.131Z,43.33
2023-11-12T13:33:12.167Z,43.36
2023-11-12T13:35:43.012Z,43.33
2023-11-12T13:38:13.987Z,43.15
2023-11-12T13:40:45.453Z,43.21
2023-11-12T13:43:16.955Z,43.30
2023-11-12T13:45:49.950Z,43.24
2023-11-12T13:48:21.115Z,43.18
2023-11-12T13:50:54.432Z,42.92
2023-11-12T13:53:25.528Z,43.15
2023-11-12T13:55:59.573Z,43.14
2023-11-12T13:58:34.947Z,43.19
2023-11-12T14:01:06.957Z,43.15
2023-11-12T14:03:38.024Z,42.84
2023-11-12T14:06:09.520Z,42.90
2023-11-12T14:08:42.559Z,42.96
2023-11-12T14:11:14.132Z,42.96
2023-11-12T14:13:47.563Z,43.06
2023-11-12T14:16:18.947Z,42.85
2023-11-12T14:18:49.760Z,42.73
2023-11-12T14:21:22.930Z,42.70
2023-11-12T14:23:53.846Z,42.77
2023-11-12T14:26:24.606Z,42.81
2023-11-12T14:28:55.472Z,42.79
2023-11-12T14:31:26.252Z,42.89
2023-11-12T14:33:57.260Z,42.89
2023-11-12T14:36:28.120Z,42.87
2023-11-12T14:38:59.275Z,42.83
2023-11-12T14:41:30.453Z,42.72
2023-11-12T14:44:02.027Z,42.65
2023-11-12T14:46:36.459Z,42.87
2023-11-12T14:49:07.861Z,42.78
2023-11-12T14:51:42.460Z,42.83
2023-11-12T14:54:15.214Z,42.87
2023-11-12T14:56:45.957Z,42.88
2023-11-12T14:59:17.329Z,42.90
2023-11-12T15:01:48.346Z,42.89
2023-11-12T15:04:19.386Z,42.94
2023-11-12T15:06:52.916Z,42.86
2023-11-12T15:09:25.940Z,42.85
2023-11-12T15:11:56.760Z,42.90
2023-11-12T15:14:27.645Z,43.01
2023-11-12T15:16:59.005Z,43.12
2023-11-12T15:19:29.954Z,43.13
2023-11-12T15:22:00.849Z,43.35
2023-11-12T15:24:31.843Z,43.36
2023-11-12T15:27:02.903Z,43.55
2023-11-12T15:29:33.893Z,43.45
2023-11-12T15:32:06.830Z,43.67
2023-11-12T15:34:38.911Z,43.71
2023-11-12T15:37:11.725Z,43.73
2023-11-12T15:39:44.152Z,43.76
2023-11-12T15:42:15.766Z,43.79
2023-11-12T15:44:50.239Z,43.95
2023-11-12T15:47:21.769Z,44.09
2023-11-12T15:49:52.792Z,44.06
2023-11-12T15:52:25.680Z,44.15
2023-11-12T15:54:57.538Z,44.23
2023-11-12T15:57:28.522Z,44.18
2023-11-12T15:59:59.456Z,44.33
2023-11-12T16:02:30.183Z,44.40
2023-11-12T16:05:01.168Z,44.54
2023-11-12T16:07:32.140Z,44.57
2023-11-12T16:10:06.065Z,44.47
2023-11-12T16:12:39.310Z,44.91
2023-11-12T16:15:14.130Z,44.77
2023-11-12T16:17:46.772Z,44.80
2023-11-12T16:20:17.631Z,45.03
2023-11-12T16:22:48.634Z,45.01
2023-11-12T16:25:19.390Z,45.01
2023-11-12T16:27:50.258Z,45.21
2023-11-12T16:30:21.691Z,45.22
2023-11-12T16:32:52.632Z,45.22
2023-11-12T16:35:23.619Z,45.36
2023-11-12T16:37:56.485Z,45.58
2023-11-12T16:40:27.388Z,45.55
2023-11-12T16:43:00.829Z,45.40
2023-11-12T16:45:32.306Z,45.52
2023-11-12T16:48:03.818Z,45.64
2023-11-12T16:50:34.694Z,45.74
2023-11-12T16:53:05.682Z,45.66
2023-11-12T16:55:37.077Z,45.74
2023-11-12T16:58:08.098Z,45.98
2023-11-12T17:00:39.028Z,46.01
2023-11-12T17:03:10.006Z,46.12
2023-11-12T17:05:40.992Z,46.13
2023-11-12T17:08:11.967Z,46.23
2023-11-12T17:10:43.319Z,46.39
2023-11-12T17:13:14.192Z,46.52
2023-11-12T17:15:45.367Z,46.55
2023-11-12T17:18:16.337Z,46.54
2023-11-12T17:20:49.080Z,46.72
2023-11-12T17:23:20.005Z,46.70
2023-11-12T17:25:50.994Z,46.88
2023-11-12T17:28:21.959Z,46.80
2023-11-12T17:30:52.978Z,46.95
2023-11-12T17:33:23.960Z,46.96
2023-11-12T17:35:54.891Z,47.04
2023-11-12T17:38:28.925Z,47.05
2023-11-12T17:40:59.730Z,47.26
2023-11-12T17:43:30.541Z,47.17
2023-11-12T17:46:04.359Z,47.06
2023-11-12T17:48:36.320Z,47.52
2023-11-12T17:51:10.007Z,47.41
2023-11-12T17:53:41.043Z,47.57
2023-11-12T17:56:11.985Z,47.46
2023-11-12T17:58:42.880Z,47.68
2023-11-12T18:01:13.927Z,47.73
2023-11-12T18:03:45.071Z,47.56
2023-11-12T18:06:19.427Z,47.53
2023-11-12T18:08:50.707Z,47.59
2023-11-12T18:11:21.734Z,47.64
2023-11-12T18:13:52.508Z,47.70
2023-11-12T18:16:23.667Z,47.88
2023-11-12T18:18:55.861Z,48.01
2023-11-12T18:21:26.801Z,48.11
2023-11-12T18:23:57.809Z,48.01
2023-11-12T18:26:30.591Z,48.21
2023-11-12T18:29:01.711Z,48.20
2023-11-12T18:31:32.775Z,48.34
2023-11-12T18:34:03.712Z,48.36
2023-11-12T18:36:34.725Z,48.47
2023-11-12T18:39:07.136Z,48.39
2023-11-12T18:41:39.268Z,48.54
2023-11-12T18:44:10.400Z,48.56
2023-11-12T18:46:44.176Z,48.45
2023-11-12T18:49:15.106Z,48.78
2023-11-12T18:51:49.381Z,48.81
2023-11-12T18:54:21.303Z,48.88
2023-11-12T18:56:52.266Z,48.96
2023-11-12T18:59:23.049Z,48.87
2023-11-12T19:01:55.241Z,48.96
2023-11-12T19:04:26.013Z,48.87
2023-11-12T19:06:57.234Z,48.95
2023-11-12T19:09:28.062Z,48.99
2023-11-12T19:11:59.081Z,48.91
2023-11-12T19:14:29.838Z,48.98
2023-11-12T19:17:01.416Z,49.05
2023-11-12T19:19:37.750Z,49.00
2023-11-12T19:22:08.642Z,49.00
2023-11-12T19:24:39.643Z,49.05
2023-11-12T19:27:10.544Z,48.98
2023-11-12T19:29:41.356Z,48.99
2023-11-12T19:32:12.409Z,48.97
2023-11-12T19:34:43.282Z,49.15
2023-11-12T19:37:14.350Z,49.19
2023-11-12T19:39:45.095Z,49.23
2023-11-12T19:42:15.906Z,49.34
2023-11-12T19:44:46.927Z,49.43
2023-11-12T19:47:17.809Z,49.57
2023-11-12T19:49:49.502Z,49.67
2023-11-12T19:52:20.399Z,49.75
2023-11-12T19:54:51.258Z,49.58
2023-11-12T19:57:22.091Z,49.68
2023-11-12T19:59:53.114Z,49.65
2023-11-12T20:02:24.042Z,49.65
2023-11-12T20:04:54.917Z,49.79
2023-11-12T20:07:25.778Z,49.70
2023-11-12T20:09:57.568Z,49.97
2023-11-12T20:12:28.495Z,49.88
2023-11-12T20:15:02.626Z,49.92
2023-11-12T20:17:33.587Z,50.10
2023-11-12T20:20:04.427Z,50.05
2023-11-12T20:22:35.259Z,50.10
2023-11-12T20:25:08.767Z,50.20
2023-11-12T20:27:39.856Z,50.15
2023-11-12T20:30:12.260Z,50.22
2023-11-12T20:32:43.235Z,50.07
2023-11-12T20:35:15.858Z,50.39
2023-11-12T20:37:48.218Z,50.10
2023-11-12T20:40:19.248Z,50.14
2023-11-12T20:42:50.069Z,50.24
2023-11-12T20:45:21.067Z,50.19
2023-11-12T20:47:53.556Z,50.26
2023-11-12T20:50:25.415Z,50.25
2023-11-12T20:52:56.381Z,50.38
2023-11-12T20:55:27.172Z,50.46
2023-11-12T20:57:58.187Z,50.58
2023-11-12T21:00:29.719Z,50.39
2023-11-12T21:03:02.990Z,50.49
2023-11-12T21:05:34.009Z,50.50
2023-11-12T21:08:04.886Z,50.51
2023-11-12T21:10:35.841Z,50.56
2023-11-12T21:13:07.060Z,50.63
2023-11-12T21:15:37.814Z,50.65
2023-11-12T21:18:12.834Z,50.67
2023-11-12T21:20:43.683Z,50.57
2023-11-12T21:23:15.028Z,50.60
2023-11-12T21:25:45.848Z,50.66
2023-11-12T21:28:16.623Z,50.58
2023-11-12T21:30:47.496Z,50.84
2023-11-12T21:33:18.433Z,51.08
2023-11-12T21:35:54.707Z,50.88
2023-11-12T21:38:25.687Z,50.80
2023-11-12T21:40:57.316Z,50.75
2023-11-12T21:43:28.021Z,50.94
2023-11-12T21:46:00.072Z,50.90
2023-11-12T21:48:31.093Z,50.90
2023-11-12T21:51:01.873Z,51.17
2023-11-12T21:53:33.025Z,50.96
2023-11-12T21:56:05.463Z,51.13
2023-11-12T21:58:37.147Z,51.04
2023-11-12T22:01:11.557Z,51.02
2023-11-12T22:03:42.887Z,51.16
2023-11-12T22:06:13.775Z,51.25
2023-11-12T22:08:44.896Z,51.20
2023-11-12T22:11:15.742Z,51.31
2023-11-12T22:13:46.790Z,51.29
2023-11-12T22:16:17.649Z,51.36
2023-11-12T22:18:48.663Z,51.40
2023-11-12T22:21:19.562Z,51.28
2023-11-12T22:23:50.457Z,51.36
2023-11-12T22:26:21.311Z,51.49
2023-11-12T22:28:54.043Z,51.55
2023-11-12T22:31:25.537Z,51.43
2023-11-12T22:33:56.397Z,51.47
2023-11-12T22:36:27.440Z,51.53
2023-11-12T22:38:58.338Z,51.49
2023-11-12T22:41:29.111Z,51.51
2023-11-12T22:44:00.682Z,51.60
2023-11-12T22:46:32.413Z,51.52
2023-11-12T22:49:03.778Z,51.51
2023-11-12T22:51:35.310Z,51.52
2023-11-12T22:54:06.689Z,51.59
2023-11-12T22:56:38.273Z,51.53
2023-11-12T22:59:10.368Z,51.40
2023-11-12T23:01:41.584Z,51.49
2023-11-12T23:04:12.977Z,51.41
2023-11-12T23:06:43.942Z,51.51
2023-11-12T23:09:16.604Z,51.48
2023-11-12T23:11:47.460Z,51.45
2023-11-12T23:14:18.315Z,51.55
2023-11-12T23:16:49.860Z,51.53
2023-11-12T23:19:20.747Z,51.70
2023-11-12T23:21:52.231Z,51.78
2023-11-12T23:24:23.130Z,51.75
2023-11-12T23:26:53.906Z,51.71
2023-11-12T23:29:25.705Z,51.63
2023-11-12T23:31:56.656Z,51.71
2023-11-12T23:34:27.456Z,51.69
2023-11-12T23:36:58.223Z,51.72
2023-11-12T23:39:29.159Z,51.88
2023-11-12T23:41:59.750Z,51.85
2023-11-12T23:44:30.621Z,51.86
2023-11-12T23:47:01.530Z,51.84
2023-11-12T23:49:33.856Z,51.85
2023-11-12T23:52:04.816Z,51.80
2023-11-12T23:54:35.744Z,52.03
2023-11-12T23:57:06.861Z,51.87
2023-11-12T23:59:37.730Z,51.75
